sensor_id;sensor_type;location;lat;lon;timestamp;P1;durP1;ratioP1;P2;durP2;ratioP2
76826;SDS011;65788;52.284;20.890;2023-03-31T00:02:03;8.10;;;4.70;;
76826;SDS011;65788;52.284;20.890;2023-03-31T00:04:42;9.30;;;5.10;;
76826;SDS011;65788;52.284;20.890;2023-03-31T00:07:18;8.30;;;5.10;;
76826;SDS011;65788;52.284;20.890;2023-03-31T00:09:50;7.70;;;4.80;;
76826;SDS011;65788;52.284;20.890;2023-03-31T00:12:20;7.00;;;4.40;;
76826;SDS011;65788;52.284;20.890;2023-03-31T00:14:47;7.80;;;4.40;;
76826;SDS011;65788;52.284;20.890;2023-03-31T00:17:14;6.00;;;4.20;;
76826;SDS011;65788;52.284;20.890;2023-03-31T00:19:41;8.00;;;4.70;;
76826;SDS011;65788;52.284;20.890;2023-03-31T00:22:08;8.00;;;4.90;;
76826;SDS011;65788;52.284;20.890;2023-03-31T00:24:35;8.30;;;4.70;;
76826;SDS011;65788;52.284;20.890;2023-03-31T00:27:03;6.90;;;4.40;;
76826;SDS011;65788;52.284;20.890;2023-03-31T00:29:31;7.10;;;4.40;;
76826;SDS011;65788;52.284;20.890;2023-03-31T00:31:59;6.50;;;4.20;;
76826;SDS011;65788;52.284;20.890;2023-03-31T00:34:26;7.90;;;4.30;;
76826;SDS011;65788;52.284;20.890;2023-03-31T00:36:53;6.70;;;4.40;;
76826;SDS011;65788;52.284;20.890;2023-03-31T00:39:23;6.70;;;4.50;;
76826;SDS011;65788;52.284;20.890;2023-03-31T00:41:50;6.80;;;5.00;;
76826;SDS011;65788;52.284;20.890;2023-03-31T00:44:18;7.30;;;4.80;;
76826;SDS011;65788;52.284;20.890;2023-03-31T00:49:33;6.40;;;4.00;;
76826;SDS011;65788;52.284;20.890;2023-03-31T00:52:03;8.70;;;5.00;;
76826;SDS011;65788;52.284;20.890;2023-03-31T00:54:39;6.50;;;4.50;;
76826;SDS011;65788;52.284;20.890;2023-03-31T00:57:11;7.10;;;4.30;;
76826;SDS011;65788;52.284;20.890;2023-03-31T00:59:45;8.20;;;4.90;;
76826;SDS011;65788;52.284;20.890;2023-03-31T01:02:16;7.70;;;4.70;;
76826;SDS011;65788;52.284;20.890;2023-03-31T01:04:47;7.90;;;4.50;;
76826;SDS011;65788;52.284;20.890;2023-03-31T01:07:25;7.10;;;4.30;;
76826;SDS011;65788;52.284;20.890;2023-03-31T01:09:59;7.70;;;5.20;;
76826;SDS011;65788;52.284;20.890;2023-03-31T01:12:30;6.60;;;4.30;;
76826;SDS011;65788;52.284;20.890;2023-03-31T01:15:00;7.20;;;4.50;;
76826;SDS011;65788;52.284;20.890;2023-03-31T01:17:31;7.10;;;4.30;;
76826;SDS011;65788;52.284;20.890;2023-03-31T01:28:22;7.60;;;4.30;;
76826;SDS011;65788;52.284;20.890;2023-03-31T01:39:43;5.60;;;3.70;;
76826;SDS011;65788;52.284;20.890;2023-03-31T01:42:34;7.00;;;4.40;;
76826;SDS011;65788;52.284;20.890;2023-03-31T01:50:54;7.10;;;4.00;;
76826;SDS011;65788;52.284;20.890;2023-03-31T01:59:02;7.90;;;4.00;;
76826;SDS011;65788;52.284;20.890;2023-03-31T02:01:34;7.00;;;4.00;;
76826;SDS011;65788;52.284;20.890;2023-03-31T02:04:30;6.70;;;3.70;;
76826;SDS011;65788;52.284;20.890;2023-03-31T02:07:03;5.80;;;3.70;;
76826;SDS011;65788;52.284;20.890;2023-03-31T02:09:38;5.50;;;3.80;;
76826;SDS011;65788;52.284;20.890;2023-03-31T02:12:10;7.10;;;4.20;;
76826;SDS011;65788;52.284;20.890;2023-03-31T02:14:39;5.90;;;3.70;;
76826;SDS011;65788;52.284;20.890;2023-03-31T02:17:10;6.40;;;4.10;;
76826;SDS011;65788;52.284;20.890;2023-03-31T02:19:44;7.20;;;3.80;;
76826;SDS011;65788;52.284;20.890;2023-03-31T02:22:16;6.60;;;4.10;;
76826;SDS011;65788;52.284;20.890;2023-03-31T02:24:46;5.90;;;4.00;;
76826;SDS011;65788;52.284;20.890;2023-03-31T02:27:24;5.70;;;3.90;;
76826;SDS011;65788;52.284;20.890;2023-03-31T02:29:52;6.60;;;3.40;;
76826;SDS011;65788;52.284;20.890;2023-03-31T02:32:40;6.80;;;4.10;;
76826;SDS011;65788;52.284;20.890;2023-03-31T02:35:10;5.40;;;3.20;;
76826;SDS011;65788;52.284;20.890;2023-03-31T02:37:42;5.90;;;3.40;;
76826;SDS011;65788;52.284;20.890;2023-03-31T02:40:16;6.10;;;3.30;;
76826;SDS011;65788;52.284;20.890;2023-03-31T02:42:46;5.40;;;3.50;;
76826;SDS011;65788;52.284;20.890;2023-03-31T02:48:14;5.00;;;3.40;;
76826;SDS011;65788;52.284;20.890;2023-03-31T02:50:47;5.80;;;3.40;;
76826;SDS011;65788;52.284;20.890;2023-03-31T02:59:14;5.50;;;3.40;;
76826;SDS011;65788;52.284;20.890;2023-03-31T03:07:25;5.90;;;3.70;;
76826;SDS011;65788;52.284;20.890;2023-03-31T03:10:15;5.20;;;3.20;;
76826;SDS011;65788;52.284;20.890;2023-03-31T03:16:17;5.40;;;2.90;;
76826;SDS011;65788;52.284;20.890;2023-03-31T03:18:54;5.00;;;3.20;;
76826;SDS011;65788;52.284;20.890;2023-03-31T03:21:25;6.20;;;3.80;;
76826;SDS011;65788;52.284;20.890;2023-03-31T03:23:52;5.30;;;3.30;;
76826;SDS011;65788;52.284;20.890;2023-03-31T03:26:20;5.50;;;3.20;;
76826;SDS011;65788;52.284;20.890;2023-03-31T03:28:50;5.10;;;3.30;;
76826;SDS011;65788;52.284;20.890;2023-03-31T03:31:17;6.90;;;3.50;;
76826;SDS011;65788;52.284;20.890;2023-03-31T03:33:45;5.40;;;3.10;;
76826;SDS011;65788;52.284;20.890;2023-03-31T03:36:12;4.50;;;2.80;;
76826;SDS011;65788;52.284;20.890;2023-03-31T03:38:39;5.70;;;2.90;;
76826;SDS011;65788;52.284;20.890;2023-03-31T03:41:06;5.10;;;3.10;;
76826;SDS011;65788;52.284;20.890;2023-03-31T03:43:33;5.40;;;3.00;;
76826;SDS011;65788;52.284;20.890;2023-03-31T03:46:01;3.70;;;2.80;;
76826;SDS011;65788;52.284;20.890;2023-03-31T03:48:28;5.00;;;3.00;;
76826;SDS011;65788;52.284;20.890;2023-03-31T03:50:55;4.90;;;2.90;;
76826;SDS011;65788;52.284;20.890;2023-03-31T03:53:25;4.00;;;2.80;;
76826;SDS011;65788;52.284;20.890;2023-03-31T03:55:53;4.40;;;3.10;;
76826;SDS011;65788;52.284;20.890;2023-03-31T03:58:20;4.80;;;2.90;;
76826;SDS011;65788;52.284;20.890;2023-03-31T04:00:47;4.50;;;2.60;;
76826;SDS011;65788;52.284;20.890;2023-03-31T04:03:14;4.30;;;2.50;;
76826;SDS011;65788;52.284;20.890;2023-03-31T04:05:42;4.40;;;2.80;;
76826;SDS011;65788;52.284;20.890;2023-03-31T04:08:09;5.40;;;3.30;;
76826;SDS011;65788;52.284;20.890;2023-03-31T04:10:36;4.90;;;2.80;;
76826;SDS011;65788;52.284;20.890;2023-03-31T04:13:03;4.20;;;2.30;;
76826;SDS011;65788;52.284;20.890;2023-03-31T04:15:30;5.70;;;2.80;;
76826;SDS011;65788;52.284;20.890;2023-03-31T04:17:57;4.70;;;2.60;;
76826;SDS011;65788;52.284;20.890;2023-03-31T04:20:24;4.50;;;2.80;;
76826;SDS011;65788;52.284;20.890;2023-03-31T04:22:56;4.60;;;2.40;;
76826;SDS011;65788;52.284;20.890;2023-03-31T04:25:22;4.20;;;2.70;;
76826;SDS011;65788;52.284;20.890;2023-03-31T04:27:50;4.40;;;2.50;;
76826;SDS011;65788;52.284;20.890;2023-03-31T04:30:21;4.70;;;2.70;;
76826;SDS011;65788;52.284;20.890;2023-03-31T04:32:50;5.20;;;2.80;;
76826;SDS011;65788;52.284;20.890;2023-03-31T04:35:23;5.70;;;2.70;;
76826;SDS011;65788;52.284;20.890;2023-03-31T04:37:52;4.50;;;2.80;;
76826;SDS011;65788;52.284;20.890;2023-03-31T04:40:24;4.50;;;2.70;;
76826;SDS011;65788;52.284;20.890;2023-03-31T04:42:52;7.50;;;2.50;;
76826;SDS011;65788;52.284;20.890;2023-03-31T04:45:20;4.10;;;2.20;;
76826;SDS011;65788;52.284;20.890;2023-03-31T04:47:46;4.80;;;2.60;;
76826;SDS011;65788;52.284;20.890;2023-03-31T04:50:13;4.50;;;2.30;;
76826;SDS011;65788;52.284;20.890;2023-03-31T04:52:41;5.80;;;2.60;;
76826;SDS011;65788;52.284;20.890;2023-03-31T04:55:08;5.10;;;2.50;;
76826;SDS011;65788;52.284;20.890;2023-03-31T05:00:04;5.60;;;3.10;;
76826;SDS011;65788;52.284;20.890;2023-03-31T05:02:34;3.60;;;2.40;;
76826;SDS011;65788;52.284;20.890;2023-03-31T05:05:02;4.10;;;2.40;;
76826;SDS011;65788;52.284;20.890;2023-03-31T05:07:30;5.40;;;2.70;;
76826;SDS011;65788;52.284;20.890;2023-03-31T05:09:57;4.70;;;2.80;;
76826;SDS011;65788;52.284;20.890;2023-03-31T05:12:24;4.70;;;2.50;;
76826;SDS011;65788;52.284;20.890;2023-03-31T05:14:51;5.20;;;2.40;;
76826;SDS011;65788;52.284;20.890;2023-03-31T05:17:18;4.20;;;2.40;;
76826;SDS011;65788;52.284;20.890;2023-03-31T05:19:45;3.90;;;2.30;;
76826;SDS011;65788;52.284;20.890;2023-03-31T05:22:12;4.30;;;2.40;;
76826;SDS011;65788;52.284;20.890;2023-03-31T05:24:46;4.70;;;2.30;;
76826;SDS011;65788;52.284;20.890;2023-03-31T05:27:13;4.70;;;2.40;;
76826;SDS011;65788;52.284;20.890;2023-03-31T05:29:41;4.60;;;2.60;;
76826;SDS011;65788;52.284;20.890;2023-03-31T05:32:08;4.10;;;2.50;;
76826;SDS011;65788;52.284;20.890;2023-03-31T05:34:35;4.80;;;2.60;;
76826;SDS011;65788;52.284;20.890;2023-03-31T05:37:03;3.90;;;2.30;;
76826;SDS011;65788;52.284;20.890;2023-03-31T05:39:30;4.30;;;2.60;;
76826;SDS011;65788;52.284;20.890;2023-03-31T05:41:58;6.30;;;2.50;;
76826;SDS011;65788;52.284;20.890;2023-03-31T05:44:26;4.90;;;2.40;;
76826;SDS011;65788;52.284;20.890;2023-03-31T05:46:53;5.20;;;2.80;;
76826;SDS011;65788;52.284;20.890;2023-03-31T05:49:20;4.30;;;2.20;;
76826;SDS011;65788;52.284;20.890;2023-03-31T05:51:47;4.60;;;2.20;;
76826;SDS011;65788;52.284;20.890;2023-03-31T05:54:14;4.50;;;2.30;;
76826;SDS011;65788;52.284;20.890;2023-03-31T05:56:41;4.70;;;2.50;;
76826;SDS011;65788;52.284;20.890;2023-03-31T05:59:08;4.90;;;2.50;;
76826;SDS011;65788;52.284;20.890;2023-03-31T06:01:35;8.60;;;3.10;;
76826;SDS011;65788;52.284;20.890;2023-03-31T06:04:02;10.70;;;3.80;;
76826;SDS011;65788;52.284;20.890;2023-03-31T06:06:29;11.40;;;4.40;;
76826;SDS011;65788;52.284;20.890;2023-03-31T06:08:58;11.50;;;4.00;;
76826;SDS011;65788;52.284;20.890;2023-03-31T06:11:25;9.90;;;4.60;;
76826;SDS011;65788;52.284;20.890;2023-03-31T06:13:55;14.10;;;4.00;;
76826;SDS011;65788;52.284;20.890;2023-03-31T06:16:22;17.20;;;5.80;;
76826;SDS011;65788;52.284;20.890;2023-03-31T06:18:49;13.00;;;4.50;;
76826;SDS011;65788;52.284;20.890;2023-03-31T06:21:19;9.00;;;4.00;;
76826;SDS011;65788;52.284;20.890;2023-03-31T06:23:47;13.00;;;4.80;;
76826;SDS011;65788;52.284;20.890;2023-03-31T06:26:15;11.50;;;4.50;;
76826;SDS011;65788;52.284;20.890;2023-03-31T06:28:44;11.10;;;3.80;;
76826;SDS011;65788;52.284;20.890;2023-03-31T06:31:13;12.10;;;4.60;;
76826;SDS011;65788;52.284;20.890;2023-03-31T06:33:42;13.40;;;4.60;;
76826;SDS011;65788;52.284;20.890;2023-03-31T06:36:11;13.70;;;4.60;;
76826;SDS011;65788;52.284;20.890;2023-03-31T06:38:39;12.40;;;4.60;;
76826;SDS011;65788;52.284;20.890;2023-03-31T06:41:07;11.40;;;4.80;;
76826;SDS011;65788;52.284;20.890;2023-03-31T06:43:36;10.50;;;4.50;;
76826;SDS011;65788;52.284;20.890;2023-03-31T06:46:04;12.00;;;4.80;;
76826;SDS011;65788;52.284;20.890;2023-03-31T06:48:31;11.80;;;5.30;;
76826;SDS011;65788;52.284;20.890;2023-03-31T06:50:59;10.30;;;4.50;;
76826;SDS011;65788;52.284;20.890;2023-03-31T06:53:27;13.40;;;4.70;;
76826;SDS011;65788;52.284;20.890;2023-03-31T06:55:55;13.30;;;5.40;;
76826;SDS011;65788;52.284;20.890;2023-03-31T06:58:23;11.90;;;4.70;;
76826;SDS011;65788;52.284;20.890;2023-03-31T07:00:51;9.40;;;4.20;;
76826;SDS011;65788;52.284;20.890;2023-03-31T07:03:20;11.10;;;4.20;;
76826;SDS011;65788;52.284;20.890;2023-03-31T07:05:51;13.20;;;4.90;;
76826;SDS011;65788;52.284;20.890;2023-03-31T07:10:47;9.70;;;4.30;;
76826;SDS011;65788;52.284;20.890;2023-03-31T07:13:16;10.90;;;4.90;;
76826;SDS011;65788;52.284;20.890;2023-03-31T07:15:46;10.90;;;4.60;;
76826;SDS011;65788;52.284;20.890;2023-03-31T07:18:14;8.90;;;4.20;;
76826;SDS011;65788;52.284;20.890;2023-03-31T07:20:43;12.40;;;4.50;;
76826;SDS011;65788;52.284;20.890;2023-03-31T07:23:10;9.40;;;3.80;;
76826;SDS011;65788;52.284;20.890;2023-03-31T07:25:39;6.70;;;3.70;;
76826;SDS011;65788;52.284;20.890;2023-03-31T07:28:06;7.80;;;4.10;;
76826;SDS011;65788;52.284;20.890;2023-03-31T07:30:33;7.50;;;3.90;;
76826;SDS011;65788;52.284;20.890;2023-03-31T07:33:00;8.30;;;3.70;;
76826;SDS011;65788;52.284;20.890;2023-03-31T07:35:27;9.00;;;4.00;;
76826;SDS011;65788;52.284;20.890;2023-03-31T07:37:54;7.30;;;4.00;;
76826;SDS011;65788;52.284;20.890;2023-03-31T07:40:23;7.60;;;3.80;;
76826;SDS011;65788;52.284;20.890;2023-03-31T07:42:51;6.70;;;4.00;;
76826;SDS011;65788;52.284;20.890;2023-03-31T07:45:19;8.20;;;3.90;;
76826;SDS011;65788;52.284;20.890;2023-03-31T07:47:47;7.90;;;3.70;;
76826;SDS011;65788;52.284;20.890;2023-03-31T07:50:15;7.80;;;4.40;;
76826;SDS011;65788;52.284;20.890;2023-03-31T07:52:43;7.00;;;3.70;;
76826;SDS011;65788;52.284;20.890;2023-03-31T07:55:10;7.40;;;3.70;;
76826;SDS011;65788;52.284;20.890;2023-03-31T07:57:37;6.40;;;3.20;;
76826;SDS011;65788;52.284;20.890;2023-03-31T08:00:06;8.20;;;4.00;;
76826;SDS011;65788;52.284;20.890;2023-03-31T08:02:38;7.60;;;3.60;;
76826;SDS011;65788;52.284;20.890;2023-03-31T08:05:07;5.50;;;3.20;;
76826;SDS011;65788;52.284;20.890;2023-03-31T08:07:38;5.80;;;3.40;;
76826;SDS011;65788;52.284;20.890;2023-03-31T08:10:08;5.60;;;3.90;;
76826;SDS011;65788;52.284;20.890;2023-03-31T08:12:37;6.90;;;3.50;;
76826;SDS011;65788;52.284;20.890;2023-03-31T08:15:04;7.00;;;3.50;;
76826;SDS011;65788;52.284;20.890;2023-03-31T08:17:32;6.10;;;3.40;;
76826;SDS011;65788;52.284;20.890;2023-03-31T08:19:59;6.90;;;3.50;;
76826;SDS011;65788;52.284;20.890;2023-03-31T08:22:46;5.20;;;3.10;;
76826;SDS011;65788;52.284;20.890;2023-03-31T08:25:16;5.70;;;2.90;;
76826;SDS011;65788;52.284;20.890;2023-03-31T08:27:43;6.90;;;3.40;;
76826;SDS011;65788;52.284;20.890;2023-03-31T08:30:12;5.50;;;3.50;;
76826;SDS011;65788;52.284;20.890;2023-03-31T08:32:39;5.70;;;3.40;;
76826;SDS011;65788;52.284;20.890;2023-03-31T08:35:07;4.90;;;3.10;;
76826;SDS011;65788;52.284;20.890;2023-03-31T08:37:35;5.00;;;3.10;;
76826;SDS011;65788;52.284;20.890;2023-03-31T08:40:04;7.00;;;3.50;;
76826;SDS011;65788;52.284;20.890;2023-03-31T08:42:42;5.30;;;3.20;;
76826;SDS011;65788;52.284;20.890;2023-03-31T08:45:22;5.70;;;3.00;;
76826;SDS011;65788;52.284;20.890;2023-03-31T08:47:54;6.30;;;3.20;;
76826;SDS011;65788;52.284;20.890;2023-03-31T08:53:06;7.80;;;3.20;;
76826;SDS011;65788;52.284;20.890;2023-03-31T08:55:50;6.70;;;3.30;;
76826;SDS011;65788;52.284;20.890;2023-03-31T09:04:24;5.60;;;3.70;;
76826;SDS011;65788;52.284;20.890;2023-03-31T09:07:23;5.90;;;3.50;;
76826;SDS011;65788;52.284;20.890;2023-03-31T09:16:04;5.80;;;3.50;;
76826;SDS011;65788;52.284;20.890;2023-03-31T09:18:40;6.50;;;3.50;;
76826;SDS011;65788;52.284;20.890;2023-03-31T09:21:18;5.90;;;3.30;;
76826;SDS011;65788;52.284;20.890;2023-03-31T09:26:37;5.10;;;3.00;;
76826;SDS011;65788;52.284;20.890;2023-03-31T09:29:15;4.50;;;3.30;;
76826;SDS011;65788;52.284;20.890;2023-03-31T09:31:47;6.00;;;2.90;;
76826;SDS011;65788;52.284;20.890;2023-03-31T09:34:24;4.60;;;3.20;;
76826;SDS011;65788;52.284;20.890;2023-03-31T09:36:54;4.90;;;3.00;;
76826;SDS011;65788;52.284;20.890;2023-03-31T09:39:22;4.80;;;3.40;;
76826;SDS011;65788;52.284;20.890;2023-03-31T09:41:50;5.00;;;3.00;;
76826;SDS011;65788;52.284;20.890;2023-03-31T09:47:05;4.50;;;2.70;;
76826;SDS011;65788;52.284;20.890;2023-03-31T09:49:37;5.10;;;3.00;;
76826;SDS011;65788;52.284;20.890;2023-03-31T09:52:11;5.90;;;3.20;;
76826;SDS011;65788;52.284;20.890;2023-03-31T09:54:55;6.60;;;2.80;;
76826;SDS011;65788;52.284;20.890;2023-03-31T09:57:30;5.30;;;2.80;;
76826;SDS011;65788;52.284;20.890;2023-03-31T10:00:00;4.40;;;2.70;;
76826;SDS011;65788;52.284;20.890;2023-03-31T10:10:42;4.50;;;2.40;;
76826;SDS011;65788;52.284;20.890;2023-03-31T10:16:21;4.40;;;2.80;;
76826;SDS011;65788;52.284;20.890;2023-03-31T10:18:53;5.60;;;2.90;;
76826;SDS011;65788;52.284;20.890;2023-03-31T10:21:22;6.00;;;2.90;;
76826;SDS011;65788;52.284;20.890;2023-03-31T10:23:52;4.30;;;2.60;;
76826;SDS011;65788;52.284;20.890;2023-03-31T10:26:25;5.00;;;2.60;;
76826;SDS011;65788;52.284;20.890;2023-03-31T10:28:54;4.70;;;2.40;;
76826;SDS011;65788;52.284;20.890;2023-03-31T10:31:23;4.60;;;2.10;;
76826;SDS011;65788;52.284;20.890;2023-03-31T10:33:52;5.30;;;2.70;;
76826;SDS011;65788;52.284;20.890;2023-03-31T10:36:27;5.40;;;2.60;;
76826;SDS011;65788;52.284;20.890;2023-03-31T10:38:55;4.30;;;2.60;;
76826;SDS011;65788;52.284;20.890;2023-03-31T10:41:27;6.70;;;2.60;;
76826;SDS011;65788;52.284;20.890;2023-03-31T10:43:56;4.80;;;2.10;;
76826;SDS011;65788;52.284;20.890;2023-03-31T10:51:48;6.30;;;2.90;;
76826;SDS011;65788;52.284;20.890;2023-03-31T10:54:18;5.20;;;2.70;;
76826;SDS011;65788;52.284;20.890;2023-03-31T10:56:46;4.30;;;2.10;;
76826;SDS011;65788;52.284;20.890;2023-03-31T11:07:15;5.10;;;2.30;;
76826;SDS011;65788;52.284;20.890;2023-03-31T11:10:01;4.60;;;2.30;;
76826;SDS011;65788;52.284;20.890;2023-03-31T11:12:51;4.80;;;2.30;;
76826;SDS011;65788;52.284;20.890;2023-03-31T11:15:24;7.60;;;2.30;;
76826;SDS011;65788;52.284;20.890;2023-03-31T11:40:08;4.80;;;2.10;;
76826;SDS011;65788;52.284;20.890;2023-03-31T11:46:02;5.30;;;2.40;;
76826;SDS011;65788;52.284;20.890;2023-03-31T11:48:35;4.70;;;2.10;;
76826;SDS011;65788;52.284;20.890;2023-03-31T11:51:04;5.90;;;2.30;;
76826;SDS011;65788;52.284;20.890;2023-03-31T11:53:37;6.50;;;2.30;;
76826;SDS011;65788;52.284;20.890;2023-03-31T11:56:08;4.10;;;2.00;;
76826;SDS011;65788;52.284;20.890;2023-03-31T11:58:39;5.00;;;2.40;;
76826;SDS011;65788;52.284;20.890;2023-03-31T12:06:20;4.30;;;2.00;;
76826;SDS011;65788;52.284;20.890;2023-03-31T12:11:26;4.00;;;2.10;;
76826;SDS011;65788;52.284;20.890;2023-03-31T12:22:26;4.60;;;2.20;;
76826;SDS011;65788;52.284;20.890;2023-03-31T12:24:53;6.90;;;2.50;;
76826;SDS011;65788;52.284;20.890;2023-03-31T12:27:33;5.00;;;2.20;;
76826;SDS011;65788;52.284;20.890;2023-03-31T12:32:45;5.50;;;2.20;;
76826;SDS011;65788;52.284;20.890;2023-03-31T12:35:23;5.40;;;2.60;;
76826;SDS011;65788;52.284;20.890;2023-03-31T12:47:05;4.40;;;2.10;;
76826;SDS011;65788;52.284;20.890;2023-03-31T12:49:47;5.90;;;2.00;;
76826;SDS011;65788;52.284;20.890;2023-03-31T13:01:05;6.20;;;2.10;;
76826;SDS011;65788;52.284;20.890;2023-03-31T13:03:52;4.80;;;2.10;;
76826;SDS011;65788;52.284;20.890;2023-03-31T13:06:54;3.70;;;1.90;;
76826;SDS011;65788;52.284;20.890;2023-03-31T13:09:37;4.50;;;1.90;;
76826;SDS011;65788;52.284;20.890;2023-03-31T13:12:11;4.20;;;1.90;;
76826;SDS011;65788;52.284;20.890;2023-03-31T13:14:41;3.60;;;2.00;;
76826;SDS011;65788;52.284;20.890;2023-03-31T13:17:12;4.30;;;1.80;;
76826;SDS011;65788;52.284;20.890;2023-03-31T13:20:14;4.00;;;2.00;;
76826;SDS011;65788;52.284;20.890;2023-03-31T13:23:15;5.70;;;1.90;;
76826;SDS011;65788;52.284;20.890;2023-03-31T13:25:51;5.00;;;1.80;;
76826;SDS011;65788;52.284;20.890;2023-03-31T13:30:53;5.10;;;1.90;;
76826;SDS011;65788;52.284;20.890;2023-03-31T13:33:31;5.00;;;2.20;;
76826;SDS011;65788;52.284;20.890;2023-03-31T13:36:24;4.30;;;2.00;;
76826;SDS011;65788;52.284;20.890;2023-03-31T13:47:09;4.80;;;1.90;;
76826;SDS011;65788;52.284;20.890;2023-03-31T13:55:18;4.00;;;1.80;;
76826;SDS011;65788;52.284;20.890;2023-03-31T14:00:45;4.00;;;1.50;;
76826;SDS011;65788;52.284;20.890;2023-03-31T14:06:04;3.90;;;1.60;;
76826;SDS011;65788;52.284;20.890;2023-03-31T14:08:35;4.00;;;1.80;;
76826;SDS011;65788;52.284;20.890;2023-03-31T14:11:21;4.40;;;2.00;;
76826;SDS011;65788;52.284;20.890;2023-03-31T14:16:36;5.80;;;2.00;;
76826;SDS011;65788;52.284;20.890;2023-03-31T14:19:23;6.40;;;2.00;;
76826;SDS011;65788;52.284;20.890;2023-03-31T14:21:57;4.00;;;1.60;;
76826;SDS011;65788;52.284;20.890;2023-03-31T14:24:48;6.70;;;2.10;;
76826;SDS011;65788;52.284;20.890;2023-03-31T14:35:54;5.40;;;2.10;;
76826;SDS011;65788;52.284;20.890;2023-03-31T14:38:27;8.20;;;2.10;;
76826;SDS011;65788;52.284;20.890;2023-03-31T14:40:55;7.30;;;2.30;;
76826;SDS011;65788;52.284;20.890;2023-03-31T14:43:29;4.30;;;1.70;;
76826;SDS011;65788;52.284;20.890;2023-03-31T14:46:07;4.20;;;2.00;;
76826;SDS011;65788;52.284;20.890;2023-03-31T14:48:45;3.70;;;1.90;;
76826;SDS011;65788;52.284;20.890;2023-03-31T14:51:14;6.00;;;2.10;;
76826;SDS011;65788;52.284;20.890;2023-03-31T14:53:43;4.00;;;1.90;;
76826;SDS011;65788;52.284;20.890;2023-03-31T14:56:15;4.50;;;1.80;;
76826;SDS011;65788;52.284;20.890;2023-03-31T14:58:51;5.30;;;2.00;;
76826;SDS011;65788;52.284;20.890;2023-03-31T15:01:24;5.80;;;2.10;;
76826;SDS011;65788;52.284;20.890;2023-03-31T15:04:05;4.80;;;1.80;;
76826;SDS011;65788;52.284;20.890;2023-03-31T15:06:40;5.50;;;2.10;;
76826;SDS011;65788;52.284;20.890;2023-03-31T15:11:39;4.70;;;1.70;;
76826;SDS011;65788;52.284;20.890;2023-03-31T15:14:07;4.60;;;1.60;;
76826;SDS011;65788;52.284;20.890;2023-03-31T15:16:41;4.00;;;1.90;;
76826;SDS011;65788;52.284;20.890;2023-03-31T15:19:17;3.60;;;1.70;;
76826;SDS011;65788;52.284;20.890;2023-03-31T15:22:10;4.40;;;1.90;;
76826;SDS011;65788;52.284;20.890;2023-03-31T15:24:41;3.50;;;1.70;;
76826;SDS011;65788;52.284;20.890;2023-03-31T15:27:13;3.80;;;1.90;;
76826;SDS011;65788;52.284;20.890;2023-03-31T15:29:56;3.60;;;1.80;;
76826;SDS011;65788;52.284;20.890;2023-03-31T15:34:55;3.80;;;1.90;;
76826;SDS011;65788;52.284;20.890;2023-03-31T15:37:25;5.00;;;1.90;;
76826;SDS011;65788;52.284;20.890;2023-03-31T15:39:58;3.80;;;2.30;;
76826;SDS011;65788;52.284;20.890;2023-03-31T15:42:32;4.30;;;2.00;;
76826;SDS011;65788;52.284;20.890;2023-03-31T15:47:57;7.60;;;2.00;;
76826;SDS011;65788;52.284;20.890;2023-03-31T15:50:28;3.90;;;2.10;;
76826;SDS011;65788;52.284;20.890;2023-03-31T15:52:57;3.40;;;1.60;;
76826;SDS011;65788;52.284;20.890;2023-03-31T15:55:38;4.10;;;1.90;;
76826;SDS011;65788;52.284;20.890;2023-03-31T16:00:42;4.00;;;1.50;;
76826;SDS011;65788;52.284;20.890;2023-03-31T16:03:17;3.40;;;1.50;;
76826;SDS011;65788;52.284;20.890;2023-03-31T16:05:53;5.20;;;2.20;;
76826;SDS011;65788;52.284;20.890;2023-03-31T16:11:12;12.00;;;9.10;;
76826;SDS011;65788;52.284;20.890;2023-03-31T16:13:45;13.90;;;10.90;;
76826;SDS011;65788;52.284;20.890;2023-03-31T16:16:17;12.70;;;8.90;;
76826;SDS011;65788;52.284;20.890;2023-03-31T16:18:51;10.70;;;8.20;;
76826;SDS011;65788;52.284;20.890;2023-03-31T16:21:34;13.10;;;8.20;;
76826;SDS011;65788;52.284;20.890;2023-03-31T16:24:15;12.00;;;8.60;;
76826;SDS011;65788;52.284;20.890;2023-03-31T16:26:43;9.80;;;7.10;;
76826;SDS011;65788;52.284;20.890;2023-03-31T16:29:17;10.50;;;7.50;;
76826;SDS011;65788;52.284;20.890;2023-03-31T16:31:46;10.80;;;7.70;;
76826;SDS011;65788;52.284;20.890;2023-03-31T16:34:15;8.20;;;5.80;;
76826;SDS011;65788;52.284;20.890;2023-03-31T16:36:42;10.00;;;7.00;;
76826;SDS011;65788;52.284;20.890;2023-03-31T16:39:08;9.80;;;6.60;;
76826;SDS011;65788;52.284;20.890;2023-03-31T16:41:36;10.10;;;7.00;;
76826;SDS011;65788;52.284;20.890;2023-03-31T16:44:04;9.80;;;7.00;;
76826;SDS011;65788;52.284;20.890;2023-03-31T16:46:34;10.20;;;7.80;;
76826;SDS011;65788;52.284;20.890;2023-03-31T16:49:01;10.50;;;7.50;;
76826;SDS011;65788;52.284;20.890;2023-03-31T16:51:28;17.30;;;13.90;;
76826;SDS011;65788;52.284;20.890;2023-03-31T16:53:57;14.00;;;10.60;;
76826;SDS011;65788;52.284;20.890;2023-03-31T16:56:24;14.40;;;10.90;;
76826;SDS011;65788;52.284;20.890;2023-03-31T16:58:52;12.80;;;8.10;;
76826;SDS011;65788;52.284;20.890;2023-03-31T17:01:19;14.90;;;10.80;;
76826;SDS011;65788;52.284;20.890;2023-03-31T17:03:47;17.20;;;12.10;;
76826;SDS011;65788;52.284;20.890;2023-03-31T17:06:14;14.70;;;11.30;;
76826;SDS011;65788;52.284;20.890;2023-03-31T17:08:42;15.20;;;11.40;;
76826;SDS011;65788;52.284;20.890;2023-03-31T17:11:10;14.30;;;11.80;;
76826;SDS011;65788;52.284;20.890;2023-03-31T17:13:42;16.40;;;13.60;;
76826;SDS011;65788;52.284;20.890;2023-03-31T17:16:10;16.50;;;13.70;;
76826;SDS011;65788;52.284;20.890;2023-03-31T17:18:38;16.80;;;12.50;;
76826;SDS011;65788;52.284;20.890;2023-03-31T17:21:06;16.30;;;12.50;;
76826;SDS011;65788;52.284;20.890;2023-03-31T17:23:36;16.40;;;12.80;;
76826;SDS011;65788;52.284;20.890;2023-03-31T17:26:05;15.10;;;12.30;;
76826;SDS011;65788;52.284;20.890;2023-03-31T17:28:35;14.70;;;11.60;;
76826;SDS011;65788;52.284;20.890;2023-03-31T17:31:09;15.80;;;12.30;;
76826;SDS011;65788;52.284;20.890;2023-03-31T17:33:37;17.00;;;12.70;;
76826;SDS011;65788;52.284;20.890;2023-03-31T17:36:03;16.20;;;12.30;;
76826;SDS011;65788;52.284;20.890;2023-03-31T17:38:30;14.10;;;11.40;;
76826;SDS011;65788;52.284;20.890;2023-03-31T17:41:02;12.60;;;10.60;;
76826;SDS011;65788;52.284;20.890;2023-03-31T17:43:33;15.30;;;12.00;;
76826;SDS011;65788;52.284;20.890;2023-03-31T17:46:01;15.60;;;12.00;;
76826;SDS011;65788;52.284;20.890;2023-03-31T17:48:30;15.60;;;11.70;;
76826;SDS011;65788;52.284;20.890;2023-03-31T17:51:06;17.80;;;13.10;;
76826;SDS011;65788;52.284;20.890;2023-03-31T17:53:35;14.90;;;11.30;;
76826;SDS011;65788;52.284;20.890;2023-03-31T17:56:02;17.60;;;11.90;;
76826;SDS011;65788;52.284;20.890;2023-03-31T17:58:31;15.80;;;11.60;;
76826;SDS011;65788;52.284;20.890;2023-03-31T18:00:59;14.60;;;11.60;;
76826;SDS011;65788;52.284;20.890;2023-03-31T18:03:29;17.20;;;12.70;;
76826;SDS011;65788;52.284;20.890;2023-03-31T18:06:01;17.10;;;12.60;;
76826;SDS011;65788;52.284;20.890;2023-03-31T18:08:37;15.80;;;13.10;;
76826;SDS011;65788;52.284;20.890;2023-03-31T18:11:05;15.50;;;11.80;;
76826;SDS011;65788;52.284;20.890;2023-03-31T18:13:34;14.90;;;12.30;;
76826;SDS011;65788;52.284;20.890;2023-03-31T18:16:02;17.40;;;12.10;;
76826;SDS011;65788;52.284;20.890;2023-03-31T18:18:30;14.80;;;11.80;;
76826;SDS011;65788;52.284;20.890;2023-03-31T18:21:01;16.10;;;12.00;;
76826;SDS011;65788;52.284;20.890;2023-03-31T18:23:28;17.20;;;13.30;;